Time;durP1;ratioP1;P1;durP2;ratioP2;P2;SDS_P1;SDS_P2;PMS_P1;PMS_P2;Temp;Humidity;BMP_temperature;BMP_pressure;BME280_temperature;BME280_humidity;BME280_pressure;Samples;Min_cycle;Max_cycle;Signal;HPM_P1;HPM_P2
2021/10/30 00:06:40;;;;;;;6.00;1.60;;;15.90;60.30;;;;;;20710228;28;20368;-73
2021/10/30 00:16:40;;;;;;;9.02;1.85;;;15.80;60.20;;;;;;20735056;28;20037;-73
2021/10/30 00:26:41;;;;;;;2.30;1.42;;;15.80;60.20;;;;;;20717474;28;20702;-73
2021/10/30 00:36:42;;;;;;;2.45;1.50;;;15.80;60.10;;;;;;20732215;28;20034;-73
2021/10/30 00:46:43;;;;;;;3.85;2.13;;;15.80;60.20;;;;;;20731531;28;20033;-73
2021/10/30 00:56:44;;;;;;;1.98;1.63;;;15.80;60.10;;;;;;20730806;28;20100;-73
2021/10/30 01:06:47;;;;;;;3.05;1.67;;;15.80;60.10;;;;;;20731441;28;20472;-73
2021/10/30 01:16:57;;;;;;;1.90;1.30;;;15.80;60.00;;;;;;20713429;28;20480;-73
2021/10/30 01:26:58;;;;;;;2.17;1.50;;;15.80;60.10;;;;;;20712325;28;20034;-73
2021/10/30 01:36:59;;;;;;;2.67;1.80;;;15.80;60.00;;;;;;20727603;28;20029;-73
2021/10/30 01:47:00;;;;;;;3.93;1.77;;;15.80;60.00;;;;;;20710235;28;20357;-73
2021/10/30 01:57:02;;;;;;;4.47;1.65;;;15.70;60.00;;;;;;20710514;28;20304;-74
2021/10/30 02:07:03;;;;;;;2.50;1.38;;;15.70;59.90;;;;;;20709777;28;20066;-73
2021/10/30 02:17:04;;;;;;;2.60;1.60;;;15.80;60.00;;;;;;20707192;28;20045;-73
2021/10/30 02:27:04;;;;;;;3.17;1.60;;;15.70;59.90;;;;;;20708603;28;20112;-73
2021/10/30 02:37:05;;;;;;;3.30;1.73;;;15.70;59.80;;;;;;20691813;28;20107;-73
2021/10/30 02:47:06;;;;;;;3.78;1.38;;;15.70;59.70;;;;;;20691383;28;20375;-73
2021/10/30 02:57:06;;;;;;;2.08;1.45;;;15.90;59.30;;;;;;20693325;28;20369;-73
2021/10/30 03:07:07;;;;;;;3.38;1.40;;;15.90;59.10;;;;;;20723602;28;20100;-73
2021/10/30 03:17:08;;;;;;;2.72;1.27;;;15.70;59.40;;;;;;20706590;28;20060;-73
2021/10/30 03:27:08;;;;;;;2.50;1.30;;;15.50;59.80;;;;;;20705436;28;20108;-73
2021/10/30 03:37:09;;;;;;;2.05;1.40;;;15.40;60.20;;;;;;20704755;28;20053;-73
2021/10/30 03:47:09;;;;;;;2.20;1.40;;;15.40;60.20;;;;;;20704257;28;20030;-73
2021/10/30 03:57:10;;;;;;;2.00;1.25;;;16.20;58.80;;;;;;20719463;28;20138;-73
2021/10/30 04:07:10;;;;;;;1.70;1.17;;;17.40;55.80;;;;;;20702231;28;20026;-73
2021/10/30 04:17:14;;;;;;;2.40;1.23;;;18.50;53.20;;;;;;20718184;28;20042;-73
2021/10/30 04:27:14;;;;;;;2.53;1.55;;;19.20;51.40;;;;;;20722434;28;20396;-73
2021/10/30 04:37:18;;;;;;;1.88;1.20;;;19.40;50.50;;;;;;20711979;28;20129;-73
2021/10/30 04:47:19;;;;;;;3.45;1.67;;;19.30;50.30;;;;;;20731755;28;20463;-73
2021/10/30 04:57:19;;;;;;;1.33;1.00;;;19.10;50.50;;;;;;20730977;28;20042;-74
2021/10/30 05:07:20;;;;;;;2.50;1.50;;;18.30;51.60;;;;;;20731653;28;20041;-73
2021/10/30 05:17:20;;;;;;;1.60;1.00;;;17.60;53.30;;;;;;20713159;28;20133;-73
2021/10/30 05:27:21;;;;;;;2.55;1.30;;;17.00;54.70;;;;;;20746432;28;20034;-73
2021/10/30 05:37:22;;;;;;;1.85;1.15;;;16.60;55.80;;;;;;20729355;28;20519;-73
2021/10/30 05:47:27;;;;;;;2.28;1.40;;;16.20;56.50;;;;;;20711673;28;20483;-73
2021/10/30 05:57:27;;;;;;;2.00;1.30;;;16.10;57.20;;;;;;20710432;28;20042;-73
2021/10/30 06:07:28;;;;;;;2.38;1.50;;;16.00;57.70;;;;;;20742238;28;20116;-73
2021/10/30 06:17:28;;;;;;;1.92;1.40;;;16.00;57.80;;;;;;20725250;28;20060;-73
2021/10/30 06:27:29;;;;;;;1.92;1.25;;;16.00;57.80;;;;;;20725173;28;20034;-73
2021/10/30 06:37:30;;;;;;;1.60;1.20;;;16.10;57.70;;;;;;20725227;28;20741;-73
2021/10/30 06:47:31;;;;;;;2.58;1.35;;;16.20;57.60;;;;;;20720787;28;20132;-73
2021/10/30 06:57:31;;;;;;;1.80;1.25;;;16.30;57.50;;;;;;20707342;28;20038;-73
2021/10/30 07:07:32;;;;;;;3.97;1.53;;;16.30;57.40;;;;;;20741124;28;20564;-75
2021/10/30 07:17:33;;;;;;;2.28;1.52;;;16.30;57.40;;;;;;20715321;28;20301;-77
2021/10/30 07:27:33;;;;;;;2.67;1.40;;;16.30;57.50;;;;;;20704485;28;20038;-76
2021/10/30 07:37:34;;;;;;;1.50;1.08;;;16.20;57.50;;;;;;20705966;28;20053;-73
2021/10/30 07:47:35;;;;;;;2.30;1.77;;;16.20;57.70;;;;;;20696392;28;20046;-74
2021/10/30 07:57:35;;;;;;;1.52;1.00;;;16.30;57.80;;;;;;20703551;28;20041;-73
2021/10/30 08:07:36;;;;;;;1.92;1.42;;;16.20;57.90;;;;;;20718929;28;20061;-73
2021/10/30 08:17:37;;;;;;;2.40;1.20;;;16.20;58.00;;;;;;20717907;28;20030;-69
2021/10/30 08:27:37;;;;;;;1.92;1.08;;;16.20;58.10;;;;;;20717124;28;20060;-76
2021/10/30 08:37:39;;;;;;;1.45;0.90;;;16.20;58.10;;;;;;20684366;28;20099;-72
2021/10/30 08:47:39;;;;;;;2.72;1.05;;;16.20;58.20;;;;;;20704723;28;20088;-72
2021/10/30 08:57:40;;;;;;;1.17;0.93;;;16.20;58.30;;;;;;20695641;28;20037;-82
2021/10/30 09:07:41;;;;;;;2.35;1.30;;;16.20;58.30;;;;;;20697058;28;20387;-74
2021/10/30 09:17:42;;;;;;;2.35;1.40;;;16.20;58.40;;;;;;20683088;28;20084;-74
2021/10/30 09:27:57;;;;;;;1.48;1.00;;;16.20;58.40;;;;;;20696738;28;20030;-73
2021/10/30 09:37:57;;;;;;;3.28;1.30;;;16.30;58.20;;;;;;20697135;28;20412;-73
2021/10/30 09:48:00;;;;;;;2.78;1.35;;;16.40;58.10;;;;;;20695026;28;20052;-73
2021/10/30 09:58:04;;;;;;;1.90;1.20;;;16.40;57.90;;;;;;20710886;28;20080;-73
2021/10/30 10:08:05;;;;;;;2.90;1.80;;;16.40;58.10;;;;;;20695509;28;20080;-73
2021/10/30 10:18:06;;;;;;;2.47;1.67;;;16.30;58.50;;;;;;20674799;28;20042;-73
2021/10/30 10:28:23;;;;;;;5.80;1.90;;;16.20;58.70;;;;;;20693003;28;20048;-70
2021/10/30 10:38:54;;;;;;;2.50;1.73;;;16.70;57.90;;;;;;20676376;28;20050;-77
2021/10/30 10:48:54;;;;;;;2.40;1.67;;;17.70;55.80;;;;;;21102407;22;20057;-80
2021/10/30 10:59:06;;;;;;;2.92;1.60;;;18.60;54.00;;;;;;20792814;28;20046;-76
2021/10/30 11:09:14;;;;;;;6.45;2.33;;;19.10;52.80;;;;;;20776737;28;20036;-78
2021/10/30 11:19:38;;;;;;;4.60;1.80;;;19.20;52.30;;;;;;20779664;28;20034;-83
2021/10/30 11:29:49;;;;;;;5.68;1.83;;;19.10;52.30;;;;;;20774204;28;20394;-76
2021/10/30 11:39:50;;;;;;;5.22;1.80;;;18.60;53.10;;;;;;20801938;28;20065;-76
2021/10/30 11:49:52;;;;;;;4.40;1.77;;;17.90;54.60;;;;;;20794079;28;20033;-76
2021/10/30 11:59:58;;;;;;;6.78;2.05;;;17.30;56.20;;;;;;20814231;28;20075;-76
2021/10/30 12:09:59;;;;;;;9.33;2.73;;;16.80;57.40;;;;;;20799793;28;20049;-77
2021/10/30 12:20:10;;;;;;;11.20;3.08;;;16.50;58.40;;;;;;20766210;28;20034;-78
2021/10/30 12:30:12;;;;;;;6.38;3.42;;;16.40;59.40;;;;;;20781209;28;20036;-75
2021/10/30 12:40:13;;;;;;;8.23;4.40;;;16.30;60.00;;;;;;20778324;28;20045;-75
2021/10/30 12:50:13;;;;;;;4.10;3.30;;;16.20;60.80;;;;;;20763838;28;20049;-79
2021/10/30 13:00:19;;;;;;;5.35;3.05;;;16.10;61.80;;;;;;20794828;28;20041;-77
2021/10/30 13:10:23;;;;;;;5.55;3.33;;;16.10;62.20;;;;;;20793664;28;20029;-75
2021/10/30 13:20:23;;;;;;;7.05;3.25;;;16.10;62.10;;;;;;20777155;28;20042;-74
2021/10/30 13:30:24;;;;;;;5.87;2.93;;;16.10;62.20;;;;;;20809658;28;20059;-75
2021/10/30 13:40:25;;;;;;;4.35;2.63;;;16.10;62.20;;;;;;20758828;28;20296;-75
2021/10/30 13:50:26;;;;;;;4.20;2.70;;;16.10;62.20;;;;;;20772415;28;20041;-72
2021/10/30 14:00:27;;;;;;;7.80;5.28;;;16.10;61.70;;;;;;20757242;28;20037;-72
2021/10/30 14:10:28;;;;;;;9.82;6.20;;;16.00;62.20;;;;;;20805410;28;20176;-73
2021/10/30 14:20:29;;;;;;;10.85;6.60;;;15.90;62.50;;;;;;20822451;28;20530;-72
2021/10/30 14:30:29;;;;;;;8.77;5.37;;;16.00;62.70;;;;;;20772077;28;20483;-75
2021/10/30 14:40:30;;;;;;;10.80;5.03;;;15.90;62.80;;;;;;20769272;28;20391;-73
2021/10/30 14:50:30;;;;;;;12.13;5.90;;;16.00;62.80;;;;;;20787573;28;20765;-73
2021/10/30 15:00:31;;;;;;;9.10;6.80;;;15.90;62.70;;;;;;20818421;28;20041;-72
2021/10/30 15:10:32;;;;;;;12.57;7.93;;;16.00;62.40;;;;;;20802636;28;20403;-71
2021/10/30 15:20:34;;;;;;;18.02;8.50;;;16.00;62.30;;;;;;20802708;28;20491;-70
2021/10/30 15:30:34;;;;;;;12.27;7.63;;;16.10;62.40;;;;;;20786899;28;20041;-72
2021/10/30 15:40:35;;;;;;;10.20;6.63;;;16.20;62.30;;;;;;20816104;28;20568;-72
2021/10/30 15:50:35;;;;;;;12.80;5.10;;;16.20;62.40;;;;;;20774567;28;20044;-73
2021/10/30 16:00:36;;;;;;;9.63;4.68;;;16.00;63.00;;;;;;20794811;28;20395;-82
2021/10/30 16:10:37;;;;;;;7.68;4.00;;;16.00;63.20;;;;;;20766982;28;20030;-79
2021/10/30 16:20:38;;;;;;;6.55;3.17;;;15.90;63.30;;;;;;20769071;28;20053;-76
2021/10/30 16:30:40;;;;;;;8.05;3.08;;;15.80;63.30;;;;;;20765490;28;20037;-76
2021/10/30 16:40:41;;;;;;;6.63;3.10;;;15.80;63.30;;;;;;20797600;28;20543;-75
2021/10/30 16:50:45;;;;;;;4.13;2.85;;;15.80;63.40;;;;;;20777773;28;20037;-77
2021/10/30 17:00:46;;;;;;;4.97;3.38;;;15.80;63.10;;;;;;20805497;28;20049;-77
2021/10/30 17:10:47;;;;;;;4.65;2.80;;;15.80;63.10;;;;;;20794360;28;20045;-76
2021/10/30 17:20:49;;;;;;;4.88;3.28;;;15.80;63.20;;;;;;20812190;28;20045;-77
2021/10/30 17:30:50;;;;;;;5.60;3.50;;;15.80;63.30;;;;;;20795360;28;20049;-76
2021/10/30 17:40:51;;;;;;;6.72;3.50;;;15.70;63.30;;;;;;20762371;28;20041;-78
2021/10/30 17:50:52;;;;;;;6.20;3.80;;;15.70;63.30;;;;;;20795952;28;20111;-78
2021/10/30 18:00:52;;;;;;;5.23;3.37;;;15.70;63.30;;;;;;20793838;28;20643;-78
2021/10/30 18:10:57;;;;;;;5.53;3.63;;;15.70;63.30;;;;;;20776299;28;20272;-76
2021/10/30 18:20:58;;;;;;;4.80;3.05;;;15.70;63.30;;;;;;20790667;28;20037;-77
2021/10/30 18:30:58;;;;;;;4.68;3.25;;;15.80;63.20;;;;;;20790142;28;20152;-77
2021/10/30 18:40:59;;;;;;;6.93;3.97;;;15.80;63.20;;;;;;20773766;28;20107;-78
2021/10/30 18:51:02;;;;;;;5.82;3.60;;;15.80;63.20;;;;;;20790737;28;20041;-77
2021/10/30 19:01:03;;;;;;;5.72;3.97;;;15.80;63.10;;;;;;20789910;28;20408;-78
2021/10/30 19:11:08;;;;;;;4.47;3.45;;;15.80;63.10;;;;;;20787452;28;20162;-76
2021/10/30 19:21:09;;;;;;;7.82;4.30;;;15.80;63.10;;;;;;20769293;28;20122;-77
2021/10/30 19:31:09;;;;;;;6.63;4.10;;;15.80;63.10;;;;;;20785706;28;20050;-77
2021/10/30 19:41:12;;;;;;;5.43;3.60;;;15.70;63.10;;;;;;20805125;28;20045;-77
2021/10/30 19:51:15;;;;;;;6.13;3.88;;;15.70;63.10;;;;;;20798631;28;20705;-77
2021/10/30 20:01:17;;;;;;;5.30;3.90;;;15.70;63.20;;;;;;20782408;28;20041;-79
2021/10/30 20:11:23;;;;;;;6.32;4.30;;;15.70;63.10;;;;;;20769615;28;20481;-76
2021/10/30 20:21:25;;;;;;;6.93;4.60;;;15.70;63.10;;;;;;20744291;28;20033;-76
2021/10/30 20:31:27;;;;;;;5.45;3.45;;;15.70;63.10;;;;;;20782288;28;20029;-77
2021/10/30 20:41:37;;;;;;;4.35;3.28;;;15.70;63.10;;;;;;20799742;28;20099;-77
2021/10/30 20:51:37;;;;;;;4.38;3.03;;;15.70;63.20;;;;;;20814584;28;20559;-77
2021/10/30 21:01:41;;;;;;;6.90;3.83;;;15.70;63.20;;;;;;20765457;28;20044;-77
2021/10/30 21:11:42;;;;;;;4.10;2.97;;;15.70;63.20;;;;;;20828427;28;20113;-78
2021/10/30 21:21:42;;;;;;;5.03;3.70;;;15.70;63.30;;;;;;20780446;28;20049;-77
2021/10/30 21:31:44;;;;;;;5.65;3.28;;;15.70;63.30;;;;;;20796952;28;20546;-77
2021/10/30 21:41:48;;;;;;;4.75;3.13;;;15.60;63.20;;;;;;20795376;28;20046;-77
2021/10/30 21:51:49;;;;;;;4.90;3.50;;;15.60;63.20;;;;;;20779469;28;20052;-78
2021/10/30 22:01:51;;;;;;;4.57;2.97;;;15.60;63.30;;;;;;20777050;28;20041;-77
2021/10/30 22:11:55;;;;;;;5.25;3.30;;;15.60;63.30;;;;;;20810079;28;20075;-77
2021/10/30 22:21:55;;;;;;;4.25;2.95;;;15.60;63.40;;;;;;20776093;28;20107;-77
2021/10/30 22:31:58;;;;;;;4.85;2.88;;;15.60;63.50;;;;;;20777156;28;20021;-76
2021/10/30 22:41:59;;;;;;;4.72;3.03;;;15.60;63.50;;;;;;20791273;28;20073;-77
2021/10/30 22:52:00;;;;;;;4.40;2.67;;;15.60;63.60;;;;;;20790259;28;20053;-77
2021/10/30 23:02:03;;;;;;;3.72;2.60;;;15.60;63.60;;;;;;20773701;28;20044;-78
2021/10/30 23:12:07;;;;;;;3.72;2.92;;;15.50;63.50;;;;;;20790646;28;20046;-78
2021/10/30 23:22:08;;;;;;;4.75;2.90;;;15.50;63.60;;;;;;20789901;28;20091;-78
2021/10/30 23:32:10;;;;;;;6.30;2.85;;;15.50;63.60;;;;;;20822787;28;20037;-78
2021/10/30 23:42:11;;;;;;;4.13;2.67;;;15.50;64.40;;;;;;20789176;28;20049;-78
2021/10/30 23:52:12;;;;;;;3.83;2.40;;;15.50;63.70;;;;;;20788349;28;20529;-78
